Time;durP1;ratioP1;P1;durP2;ratioP2;P2;SDS_P1;SDS_P2;PMS_P1;PMS_P2;Temp;Humidity;BMP_temperature;BMP_pressure;BME280_temperature;BME280_humidity;BME280_pressure;Samples;Min_cycle;Max_cycle;Signal;HPM_P1;HPM_P2
2021/01/25 00:00:39;;;;;;;17.80;10.40;;;4.30;99.90;;;;;;5092263;28;20256;-79
2021/01/25 00:03:07;;;;;;;16.73;10.37;;;4.20;99.90;;;;;;5094545;28;20201;-79
2021/01/25 00:05:36;;;;;;;20.47;10.73;;;4.30;99.90;;;;;;5098664;28;20657;-79
2021/01/25 00:08:02;;;;;;;19.90;10.33;;;4.20;99.90;;;;;;5098314;28;20193;-79
2021/01/25 00:10:29;;;;;;;23.73;10.50;;;4.30;99.90;;;;;;5102459;27;20199;-79
2021/01/25 00:12:55;;;;;;;16.67;9.90;;;4.30;99.90;;;;;;5098099;27;20655;-78
2021/01/25 00:15:21;;;;;;;15.70;9.60;;;4.20;99.90;;;;;;5099290;27;20717;-78
2021/01/25 00:17:48;;;;;;;19.17;10.73;;;4.20;99.90;;;;;;5096819;27;20299;-79
2021/01/25 00:20:16;;;;;;;19.27;10.70;;;4.20;99.90;;;;;;5100635;27;20315;-79
2021/01/25 00:22:42;;;;;;;16.23;9.57;;;4.20;99.90;;;;;;5100414;27;20234;-78
2021/01/25 00:25:09;;;;;;;15.87;10.07;;;4.20;99.90;;;;;;5100946;27;20233;-78
2021/01/25 00:27:35;;;;;;;18.53;10.70;;;4.30;99.90;;;;;;5100147;27;20290;-78
2021/01/25 00:30:02;;;;;;;18.37;10.47;;;4.30;99.90;;;;;;5098209;27;20203;-78
2021/01/25 00:32:29;;;;;;;17.93;10.83;;;4.40;99.90;;;;;;5098852;27;20192;-78
2021/01/25 00:34:55;;;;;;;17.97;10.60;;;4.40;99.90;;;;;;5096416;27;20252;-78
2021/01/25 00:37:22;;;;;;;17.63;10.57;;;4.40;99.90;;;;;;5100528;27;20625;-78
2021/01/25 00:39:49;;;;;;;22.30;10.90;;;4.30;99.90;;;;;;5099987;27;20200;-78
2021/01/25 00:42:15;;;;;;;18.13;10.10;;;4.40;99.90;;;;;;5102569;27;20206;-78
2021/01/25 00:44:41;;;;;;;16.03;10.00;;;4.40;99.90;;;;;;5098820;27;20234;-79
2021/01/25 00:47:08;;;;;;;19.30;10.63;;;4.40;99.90;;;;;;5095250;28;20291;-78
2021/01/25 00:49:34;;;;;;;16.33;10.40;;;4.40;99.90;;;;;;5103811;27;20196;-79
2021/01/25 00:52:00;;;;;;;16.80;10.00;;;4.30;99.90;;;;;;5099172;27;20294;-78
2021/01/25 00:54:28;;;;;;;15.50;9.93;;;4.30;99.90;;;;;;5098473;27;20199;-78
2021/01/25 00:56:54;;;;;;;16.13;10.07;;;4.30;99.90;;;;;;5099069;27;20291;-78
2021/01/25 00:59:20;;;;;;;16.97;9.77;;;4.30;99.90;;;;;;5096705;27;20196;-78
2021/01/25 01:01:46;;;;;;;19.03;9.97;;;4.20;99.90;;;;;;5096116;27;20210;-78
2021/01/25 01:04:13;;;;;;;18.80;10.47;;;4.30;99.90;;;;;;5094531;28;20224;-79
2021/01/25 01:06:40;;;;;;;17.43;10.03;;;4.30;99.90;;;;;;5103856;27;20281;-78
2021/01/25 01:09:06;;;;;;;16.53;9.50;;;4.30;99.90;;;;;;5098585;27;20299;-78
2021/01/25 01:11:34;;;;;;;15.03;9.37;;;4.20;99.90;;;;;;5099555;27;20297;-79
2021/01/25 01:14:00;;;;;;;14.57;9.47;;;4.20;99.90;;;;;;5097233;27;20247;-78
2021/01/25 01:16:26;;;;;;;17.67;9.87;;;4.10;99.90;;;;;;5096191;27;20702;-78
2021/01/25 01:18:53;;;;;;;16.63;9.63;;;4.10;99.90;;;;;;5095646;27;20278;-78
2021/01/25 01:21:19;;;;;;;14.73;9.23;;;4.10;99.90;;;;;;5100139;27;20206;-78
2021/01/25 01:23:45;;;;;;;17.23;9.77;;;4.10;99.90;;;;;;5103490;27;20223;-78
2021/01/25 01:26:12;;;;;;;18.60;9.97;;;4.10;99.90;;;;;;5098592;27;20325;-78
2021/01/25 01:28:39;;;;;;;14.40;9.10;;;4.10;99.90;;;;;;5100295;27;20293;-78
2021/01/25 01:31:05;;;;;;;13.00;8.83;;;3.90;99.90;;;;;;5096717;28;20228;-78
2021/01/25 01:33:32;;;;;;;15.03;9.17;;;3.90;99.90;;;;;;5095847;27;20285;-78
2021/01/25 01:35:58;;;;;;;17.33;9.30;;;3.90;99.90;;;;;;5095410;27;20253;-78
2021/01/25 01:38:24;;;;;;;14.73;8.87;;;3.80;99.90;;;;;;5099721;27;20290;-78
2021/01/25 01:40:51;;;;;;;15.13;8.93;;;3.70;99.90;;;;;;5103383;27;20566;-78
2021/01/25 01:43:17;;;;;;;15.50;9.07;;;3.70;99.90;;;;;;5097807;27;20209;-78
2021/01/25 01:45:44;;;;;;;13.50;8.70;;;3.70;99.90;;;;;;5097856;27;20291;-78
2021/01/25 01:48:11;;;;;;;14.90;8.77;;;3.60;99.90;;;;;;5098906;27;20488;-78
2021/01/25 01:50:37;;;;;;;17.20;9.00;;;3.60;99.90;;;;;;5098544;27;20230;-78
2021/01/25 01:53:04;;;;;;;14.03;9.03;;;3.60;99.90;;;;;;5102081;27;20194;-78
2021/01/25 01:55:30;;;;;;;14.17;8.80;;;3.80;99.90;;;;;;5096781;27;20278;-78
2021/01/25 01:57:57;;;;;;;13.23;8.20;;;3.80;99.90;;;;;;5097766;27;20203;-78
2021/01/25 02:00:24;;;;;;;13.83;8.43;;;3.80;99.90;;;;;;5095127;27;20202;-78
2021/01/25 02:02:51;;;;;;;16.10;9.00;;;3.90;99.90;;;;;;5094057;27;20202;-79
2021/01/25 02:05:18;;;;;;;12.83;8.43;;;3.90;99.90;;;;;;5098429;27;20261;-78
2021/01/25 02:07:48;;;;;;;18.27;9.67;;;4.00;99.90;;;;;;5097940;27;20200;-78
2021/01/25 02:10:16;;;;;;;14.93;9.20;;;4.00;99.90;;;;;;5100950;27;20207;-78
2021/01/25 02:12:44;;;;;;;14.40;9.50;;;4.00;99.90;;;;;;5096043;27;20210;-78
2021/01/25 02:15:11;;;;;;;17.23;9.23;;;4.10;99.90;;;;;;5097403;27;20199;-78
2021/01/25 02:17:38;;;;;;;16.33;9.40;;;4.10;99.90;;;;;;5094374;27;20522;-79
2021/01/25 02:20:07;;;;;;;16.70;9.07;;;4.20;99.90;;;;;;5093405;27;20664;-78
2021/01/25 02:23:16;;;;;;;17.33;9.03;;;4.10;99.90;;;;;;5098319;27;20197;-79
2021/01/25 02:25:51;;;;;;;15.73;9.17;;;4.20;99.90;;;;;;5101473;27;20209;-78
2021/01/25 02:28:19;;;;;;;17.50;9.77;;;4.20;99.90;;;;;;5096164;27;20211;-79
2021/01/25 02:30:45;;;;;;;17.83;9.60;;;4.30;99.90;;;;;;5097348;27;20893;-79
2021/01/25 02:33:13;;;;;;;19.17;9.97;;;4.30;99.90;;;;;;5094220;27;20204;-78
2021/01/25 02:35:40;;;;;;;16.33;9.77;;;4.20;99.90;;;;;;5094372;27;20200;-79
2021/01/25 02:38:09;;;;;;;17.60;10.10;;;4.20;99.90;;;;;;5092503;28;20552;-79
2021/01/25 02:40:37;;;;;;;19.13;9.73;;;4.20;99.90;;;;;;5101577;27;20660;-79
2021/01/25 02:43:04;;;;;;;18.13;9.70;;;4.20;99.90;;;;;;5096360;27;20200;-79
2021/01/25 02:45:32;;;;;;;23.67;11.00;;;4.30;99.90;;;;;;5096686;27;20220;-78
2021/01/25 02:47:59;;;;;;;18.53;9.70;;;4.30;99.90;;;;;;5097376;27;20352;-79
2021/01/25 02:50:26;;;;;;;15.77;9.20;;;4.30;99.90;;;;;;5097009;27;20207;-79
2021/01/25 02:52:52;;;;;;;17.47;9.13;;;4.30;99.90;;;;;;5098582;27;20222;-78
2021/01/25 02:55:18;;;;;;;16.33;9.60;;;4.30;99.90;;;;;;5096440;27;20241;-78
2021/01/25 02:57:46;;;;;;;20.17;10.00;;;4.30;99.90;;;;;;5094391;27;20278;-78
2021/01/25 03:00:14;;;;;;;19.00;9.73;;;4.30;99.90;;;;;;5095200;27;20687;-79
2021/01/25 03:02:41;;;;;;;20.80;10.13;;;4.30;99.90;;;;;;5092600;28;20196;-79
2021/01/25 03:05:09;;;;;;;18.53;9.43;;;4.30;99.90;;;;;;5097315;27;20595;-78
2021/01/25 03:07:35;;;;;;;17.80;10.43;;;4.20;99.90;;;;;;5096850;27;20195;-78
2021/01/25 03:10:03;;;;;;;17.93;10.27;;;4.30;99.90;;;;;;5099243;27;20232;-79
2021/01/25 03:12:30;;;;;;;17.53;9.67;;;4.20;99.90;;;;;;5102542;27;20232;-78
2021/01/25 03:14:57;;;;;;;16.37;9.93;;;4.30;99.90;;;;;;5127506;27;20202;-78
2021/01/25 03:17:24;;;;;;;18.07;9.60;;;4.30;99.90;;;;;;5127931;27;20272;-79
2021/01/25 03:19:51;;;;;;;17.17;10.03;;;4.30;99.90;;;;;;5122462;27;20242;-79
2021/01/25 03:22:17;;;;;;;18.07;10.70;;;4.30;99.90;;;;;;5126554;27;20200;-78
2021/01/25 03:24:43;;;;;;;17.40;9.93;;;4.30;99.90;;;;;;5123922;27;20310;-79
2021/01/25 03:27:10;;;;;;;21.90;11.43;;;4.40;99.90;;;;;;5124935;27;20266;-78
2021/01/25 03:29:36;;;;;;;19.93;10.40;;;4.30;99.90;;;;;;5126311;27;20202;-79
2021/01/25 03:32:03;;;;;;;20.03;10.80;;;4.30;99.90;;;;;;5124355;27;20203;-78
2021/01/25 03:34:29;;;;;;;17.97;11.07;;;4.40;99.90;;;;;;5127944;27;20276;-78
2021/01/25 03:36:57;;;;;;;22.33;11.17;;;4.40;99.90;;;;;;5121231;27;20283;-78
2021/01/25 03:39:23;;;;;;;18.07;11.37;;;4.40;99.90;;;;;;5110854;27;20284;-78
2021/01/25 03:41:49;;;;;;;20.53;12.13;;;4.30;99.90;;;;;;5122628;27;20568;-79
2021/01/25 03:44:16;;;;;;;22.23;12.03;;;4.30;99.90;;;;;;5125202;27;20312;-79
2021/01/25 03:46:46;;;;;;;19.23;12.10;;;4.30;99.90;;;;;;5133402;27;20674;-78
2021/01/25 03:49:14;;;;;;;23.17;12.43;;;4.20;99.90;;;;;;5133231;27;20704;-79
2021/01/25 03:51:40;;;;;;;22.40;11.00;;;3.80;99.90;;;;;;5132756;27;20199;-78
2021/01/25 03:54:10;;;;;;;16.17;10.13;;;3.50;99.90;;;;;;5133125;27;20246;-79
2021/01/25 03:56:36;;;;;;;17.57;10.80;;;3.40;99.90;;;;;;5132635;27;20238;-79
2021/01/25 03:59:02;;;;;;;17.10;10.47;;;3.30;99.90;;;;;;5131263;27;20283;-79
2021/01/25 04:01:29;;;;;;;22.00;12.90;;;3.50;99.90;;;;;;5118760;27;20286;-78
2021/01/25 04:03:55;;;;;;;18.70;11.37;;;3.60;99.90;;;;;;5132814;27;20222;-78
2021/01/25 04:06:22;;;;;;;21.67;11.60;;;3.50;99.90;;;;;;5132879;27;20289;-78
2021/01/25 04:08:48;;;;;;;24.50;12.63;;;3.50;99.90;;;;;;5132934;27;20293;-79
2021/01/25 04:11:16;;;;;;;22.03;13.00;;;3.70;99.90;;;;;;5132945;27;20218;-78
2021/01/25 04:13:42;;;;;;;21.03;11.77;;;3.60;99.90;;;;;;5132368;28;20641;-78
2021/01/25 04:16:09;;;;;;;21.77;12.03;;;3.60;99.90;;;;;;5133035;28;20213;-79
2021/01/25 04:18:35;;;;;;;19.93;11.67;;;3.60;99.90;;;;;;5132546;27;20206;-78
2021/01/25 04:21:02;;;;;;;19.20;11.60;;;3.60;99.90;;;;;;5132703;28;20627;-78
2021/01/25 04:23:29;;;;;;;18.73;11.33;;;3.70;99.90;;;;;;5132644;27;20204;-78
2021/01/25 04:25:55;;;;;;;18.80;11.63;;;3.80;99.90;;;;;;5133227;28;20196;-79
2021/01/25 04:28:22;;;;;;;21.90;12.00;;;3.80;99.90;;;;;;5133283;28;20288;-79
2021/01/25 04:30:49;;;;;;;21.37;12.50;;;4.00;99.90;;;;;;5134165;28;20286;-78
2021/01/25 04:33:15;;;;;;;23.73;13.13;;;4.10;99.90;;;;;;5133721;28;20206;-79
2021/01/25 04:35:41;;;;;;;24.73;13.70;;;4.20;99.90;;;;;;5132634;28;20617;-78
2021/01/25 04:38:08;;;;;;;22.60;13.60;;;4.20;99.90;;;;;;5132710;28;20204;-78
2021/01/25 04:40:35;;;;;;;24.87;12.87;;;4.20;99.90;;;;;;5132639;28;20213;-78
2021/01/25 04:43:03;;;;;;;21.30;12.83;;;4.20;99.90;;;;;;5132925;27;20344;-79
2021/01/25 04:45:30;;;;;;;22.80;13.13;;;4.20;99.90;;;;;;5132784;27;20223;-79
2021/01/25 04:47:57;;;;;;;20.77;12.73;;;4.40;99.90;;;;;;5132555;28;20658;-79
2021/01/25 04:50:25;;;;;;;21.80;13.40;;;4.40;99.90;;;;;;5132771;28;20632;-79
2021/01/25 04:52:53;;;;;;;21.73;12.37;;;4.30;99.90;;;;;;5132588;27;20196;-78
2021/01/25 04:55:20;;;;;;;19.73;12.87;;;4.30;99.90;;;;;;5136514;27;20275;-79
2021/01/25 04:57:47;;;;;;;24.57;13.40;;;4.30;99.90;;;;;;5135973;27;20263;-78
2021/01/25 05:00:16;;;;;;;23.83;13.63;;;4.40;99.90;;;;;;5136548;27;20216;-79
2021/01/25 05:02:43;;;;;;;25.00;14.27;;;4.50;99.90;;;;;;5135894;27;20211;-79
2021/01/25 05:05:11;;;;;;;25.90;14.07;;;4.50;99.90;;;;;;5136602;27;20261;-78
2021/01/25 05:07:38;;;;;;;26.67;14.20;;;4.50;99.90;;;;;;5135947;27;20218;-79
2021/01/25 05:10:06;;;;;;;27.33;13.70;;;4.50;99.90;;;;;;5135831;27;20413;-79
2021/01/25 05:12:42;;;;;;;25.03;14.37;;;4.40;99.90;;;;;;5136082;27;20214;-79
2021/01/25 05:15:10;;;;;;;24.70;14.07;;;4.40;99.90;;;;;;5135837;27;20201;-79
2021/01/25 05:17:37;;;;;;;32.90;14.87;;;4.40;99.90;;;;;;5136029;27;20659;-79
2021/01/25 05:20:07;;;;;;;31.60;19.98;;;4.60;99.90;;;;;;5135407;27;20438;-78
2021/01/25 05:22:37;;;;;;;27.20;15.73;;;4.40;99.90;;;;;;5135832;27;20254;-79
2021/01/25 05:25:07;;;;;;;27.17;14.80;;;4.40;99.90;;;;;;5135714;27;20230;-79
2021/01/25 05:27:34;;;;;;;25.60;15.47;;;4.50;99.90;;;;;;5135773;27;20198;-79
2021/01/25 05:30:08;;;;;;;30.20;16.10;;;4.50;99.90;;;;;;5135652;27;20687;-79
2021/01/25 05:32:44;;;;;;;31.00;15.70;;;4.50;99.90;;;;;;5135989;27;20213;-79
2021/01/25 05:35:13;;;;;;;34.43;16.20;;;4.50;99.90;;;;;;5117981;27;20208;-78
2021/01/25 05:37:41;;;;;;;29.63;16.37;;;4.60;99.90;;;;;;5124518;27;20196;-78
2021/01/25 05:40:13;;;;;;;33.43;16.10;;;4.40;99.90;;;;;;5130791;27;20203;-78
2021/01/25 05:42:41;;;;;;;28.70;15.97;;;4.50;99.90;;;;;;5107960;27;20199;-78
2021/01/25 05:45:09;;;;;;;33.90;16.63;;;4.40;99.90;;;;;;5136088;27;20226;-78
2021/01/25 05:47:43;;;;;;;30.63;15.67;;;4.40;99.90;;;;;;5135547;27;20201;-79
2021/01/25 05:50:23;;;;;;;31.57;15.67;;;4.40;99.90;;;;;;5131057;27;20205;-79
2021/01/25 05:52:50;;;;;;;28.77;16.67;;;4.30;99.90;;;;;;5110321;27;20664;-78
2021/01/25 05:55:16;;;;;;;30.80;15.83;;;4.40;99.90;;;;;;5127662;27;20574;-78
2021/01/25 05:57:42;;;;;;;29.87;16.00;;;4.50;99.90;;;;;;5118143;27;20625;-78
2021/01/25 06:00:10;;;;;;;27.13;15.97;;;4.40;99.90;;;;;;5133610;27;20194;-78
2021/01/25 06:02:39;;;;;;;30.67;16.33;;;4.30;99.90;;;;;;5106292;27;20212;-79
2021/01/25 06:05:08;;;;;;;27.80;16.17;;;4.20;99.90;;;;;;5123806;27;20630;-78
2021/01/25 06:07:36;;;;;;;30.70;15.87;;;4.30;99.90;;;;;;5123070;27;20203;-79
2021/01/25 06:10:05;;;;;;;32.40;16.80;;;4.20;99.90;;;;;;5135185;27;20675;-79
2021/01/25 06:12:38;;;;;;;29.03;15.90;;;4.30;99.90;;;;;;5129568;27;20288;-78
2021/01/25 06:15:08;;;;;;;28.73;16.30;;;4.30;99.90;;;;;;5133702;27;20559;-78
2021/01/25 06:17:35;;;;;;;31.23;16.20;;;4.30;99.90;;;;;;5112300;28;20191;-78
2021/01/25 06:20:05;;;;;;;28.77;15.97;;;4.30;99.90;;;;;;5111475;28;20193;-78
2021/01/25 06:22:31;;;;;;;27.63;15.23;;;4.30;99.90;;;;;;5113524;28;20626;-78
2021/01/25 06:25:00;;;;;;;37.77;18.00;;;4.20;99.90;;;;;;5114420;28;20223;-78
2021/01/25 06:27:27;;;;;;;32.90;17.17;;;4.20;99.90;;;;;;5113701;27;20198;-78
2021/01/25 06:29:53;;;;;;;31.07;17.20;;;3.90;99.90;;;;;;5114371;28;20190;-79
2021/01/25 06:32:20;;;;;;;32.37;17.47;;;3.80;99.90;;;;;;5113588;28;20216;-79
2021/01/25 06:34:46;;;;;;;32.40;17.40;;;3.70;99.90;;;;;;5114243;28;20201;-78
2021/01/25 06:37:14;;;;;;;34.27;18.10;;;3.60;99.90;;;;;;5114106;28;20597;-78
2021/01/25 06:39:44;;;;;;;33.13;17.13;;;3.40;99.90;;;;;;5113869;28;20691;-77
2021/01/25 06:42:17;;;;;;;33.50;17.60;;;3.20;99.90;;;;;;5113824;28;20235;-78
2021/01/25 06:44:45;;;;;;;28.67;16.37;;;3.10;99.90;;;;;;5113516;28;20313;-78
2021/01/25 06:47:15;;;;;;;34.20;17.23;;;3.20;99.90;;;;;;5113825;28;20286;-78
2021/01/25 06:49:45;;;;;;;34.87;17.80;;;2.90;99.90;;;;;;5106581;28;20683;-76
2021/01/25 06:52:12;;;;;;;31.17;16.30;;;2.90;99.90;;;;;;5093757;28;20261;-77
2021/01/25 06:54:42;;;;;;;35.93;17.97;;;2.80;99.90;;;;;;5093735;28;20425;-77
2021/01/25 06:57:09;;;;;;;35.27;18.47;;;2.70;99.90;;;;;;5093903;28;20191;-77
2021/01/25 06:59:38;;;;;;;38.20;18.63;;;2.80;99.90;;;;;;5093413;28;20203;-76
2021/01/25 07:02:08;;;;;;;35.70;18.77;;;2.80;99.90;;;;;;5093559;28;20202;-76
2021/01/25 07:04:44;;;;;;;35.27;18.33;;;2.70;99.90;;;;;;5092982;27;20683;-76
2021/01/25 07:07:22;;;;;;;38.70;18.67;;;2.60;99.90;;;;;;5113637;27;20205;-77
2021/01/25 07:09:49;;;;;;;39.43;20.03;;;2.40;99.90;;;;;;5121433;27;20198;-76
2021/01/25 07:12:17;;;;;;;41.97;19.57;;;2.40;99.90;;;;;;5121074;27;20388;-76
2021/01/25 07:14:45;;;;;;;36.57;16.97;;;2.40;99.90;;;;;;5113658;27;20182;-76
2021/01/25 07:17:12;;;;;;;36.63;17.73;;;2.40;99.90;;;;;;5112701;28;20246;-76
2021/01/25 07:19:38;;;;;;;31.90;14.80;;;2.40;99.90;;;;;;5113712;28;20191;-76
2021/01/25 07:22:06;;;;;;;39.67;19.37;;;2.40;99.90;;;;;;5113315;28;20257;-76
2021/01/25 07:24:32;;;;;;;37.87;18.40;;;2.50;99.90;;;;;;5113047;28;20310;-76
2021/01/25 07:26:59;;;;;;;39.77;18.93;;;2.40;99.90;;;;;;5113279;28;20201;-76
2021/01/25 07:29:27;;;;;;;44.63;17.90;;;2.30;99.90;;;;;;5113408;28;20195;-76
2021/01/25 07:31:56;;;;;;;41.67;18.93;;;2.30;99.90;;;;;;5113342;28;20198;-76
2021/01/25 07:34:23;;;;;;;43.07;19.00;;;2.30;99.90;;;;;;5113374;28;20682;-77
2021/01/25 07:36:50;;;;;;;40.97;14.43;;;2.30;99.90;;;;;;5132931;27;20186;-76
2021/01/25 07:39:18;;;;;;;37.30;15.93;;;2.20;99.90;;;;;;5133587;27;20229;-76
2021/01/25 07:41:45;;;;;;;46.27;18.93;;;2.10;99.90;;;;;;5124770;27;20199;-76
2021/01/25 07:44:14;;;;;;;44.77;18.90;;;2.10;99.90;;;;;;5112843;28;20713;-76
2021/01/25 07:46:43;;;;;;;48.97;19.40;;;2.10;99.90;;;;;;5113205;28;20203;-76
2021/01/25 07:49:11;;;;;;;50.40;21.57;;;2.20;99.90;;;;;;5112932;28;20211;-76
2021/01/25 07:51:38;;;;;;;45.67;17.43;;;2.30;99.90;;;;;;5114088;28;20338;-76
2021/01/25 07:54:05;;;;;;;47.93;19.33;;;2.30;99.90;;;;;;5112938;28;20225;-76
2021/01/25 07:56:34;;;;;;;52.93;21.57;;;2.20;99.90;;;;;;5113212;28;20553;-77
2021/01/25 07:59:05;;;;;;;50.43;21.47;;;2.10;99.90;;;;;;5113083;28;20239;-76
2021/01/25 08:01:37;;;;;;;49.67;20.30;;;2.10;99.90;;;;;;5112709;28;20286;-77
2021/01/25 08:04:06;;;;;;;46.87;19.47;;;2.10;99.90;;;;;;5122891;27;20215;-76
2021/01/25 08:06:35;;;;;;;29.57;13.37;;;2.20;99.90;;;;;;5128790;27;20195;-77
2021/01/25 08:09:03;;;;;;;36.97;16.80;;;2.20;99.90;;;;;;5131463;28;20567;-76
2021/01/25 08:11:31;;;;;;;37.43;16.90;;;2.00;99.90;;;;;;5132670;28;20297;-76
2021/01/25 08:14:03;;;;;;;45.10;18.80;;;2.00;99.90;;;;;;5096318;28;20560;-76
2021/01/25 08:16:35;;;;;;;40.73;19.37;;;2.00;99.90;;;;;;5091204;28;20640;-76
2021/01/25 08:19:10;;;;;;;42.10;19.30;;;2.10;99.90;;;;;;5091971;28;20196;-76
2021/01/25 08:21:42;;;;;;;33.60;15.47;;;2.10;99.90;;;;;;5092706;28;20285;-76
2021/01/25 08:24:12;;;;;;;41.33;17.13;;;2.10;99.90;;;;;;5103939;28;20184;-77
2021/01/25 08:26:38;;;;;;;36.87;16.90;;;2.10;99.90;;;;;;5120224;28;20667;-76
2021/01/25 08:29:10;;;;;;;46.30;20.10;;;2.10;99.90;;;;;;5122317;27;20195;-76
2021/01/25 08:31:41;;;;;;;44.73;20.37;;;2.10;99.90;;;;;;5131266;27;20199;-76
2021/01/25 08:34:25;;;;;;;30.57;14.93;;;2.10;99.90;;;;;;5116697;28;20205;-77
2021/01/25 08:37:01;;;;;;;38.87;16.70;;;2.10;99.90;;;;;;5117673;27;20201;-77
2021/01/25 08:39:34;;;;;;;43.87;20.50;;;2.10;99.90;;;;;;5137320;27;20255;-76
2021/01/25 08:42:02;;;;;;;40.20;19.57;;;2.10;99.90;;;;;;5137383;27;20221;-76
2021/01/25 08:44:30;;;;;;;40.50;19.53;;;2.20;99.90;;;;;;5136861;27;20266;-76
2021/01/25 08:47:06;;;;;;;33.40;16.33;;;2.20;99.90;;;;;;5136995;27;20242;-77
2021/01/25 08:49:35;;;;;;;33.10;12.80;;;2.20;99.90;;;;;;5136738;27;20658;-77
2021/01/25 08:52:05;;;;;;;36.40;17.10;;;2.30;99.90;;;;;;5137010;27;20194;-77
2021/01/25 08:54:33;;;;;;;38.33;17.50;;;2.20;99.90;;;;;;5136753;27;20194;-77
2021/01/25 08:56:59;;;;;;;35.77;18.87;;;2.30;99.90;;;;;;5136804;27;20222;-77
2021/01/25 08:59:32;;;;;;;26.57;13.13;;;2.30;99.90;;;;;;5121913;27;20203;-77
2021/01/25 09:02:10;;;;;;;32.57;15.00;;;2.20;99.90;;;;;;5116403;28;20195;-77
2021/01/25 09:04:36;;;;;;;37.70;19.17;;;2.30;99.90;;;;;;5115613;28;20561;-76
2021/01/25 09:07:04;;;;;;;38.73;19.67;;;2.20;99.90;;;;;;5119046;27;20234;-77
2021/01/25 09:09:30;;;;;;;32.90;16.13;;;2.30;99.90;;;;;;5136991;27;20199;-76
2021/01/25 09:11:57;;;;;;;37.97;19.50;;;2.40;99.90;;;;;;5136786;27;20335;-77
2021/01/25 09:14:23;;;;;;;40.23;19.83;;;2.50;99.90;;;;;;5136657;27;20198;-77
2021/01/25 09:16:51;;;;;;;32.23;14.93;;;2.40;99.90;;;;;;5136490;27;20657;-76
2021/01/25 09:19:17;;;;;;;37.67;18.53;;;2.40;99.90;;;;;;5136141;27;20205;-77
2021/01/25 09:21:43;;;;;;;38.33;19.13;;;2.40;99.90;;;;;;5136558;27;20199;-76
2021/01/25 09:24:10;;;;;;;40.23;20.47;;;2.50;99.90;;;;;;5135913;27;20591;-77
2021/01/25 09:26:36;;;;;;;36.33;16.37;;;2.60;99.90;;;;;;5135997;27;20199;-77
2021/01/25 09:29:03;;;;;;;33.17;16.20;;;2.60;99.90;;;;;;5136041;27;20779;-77
2021/01/25 09:31:30;;;;;;;41.07;18.57;;;2.50;99.90;;;;;;5135785;27;20201;-76
2021/01/25 09:33:57;;;;;;;43.43;21.53;;;2.60;99.90;;;;;;5122313;27;20289;-76
2021/01/25 09:36:23;;;;;;;44.50;21.97;;;2.80;99.90;;;;;;5107004;27;20198;-77
2021/01/25 09:38:50;;;;;;;45.00;21.03;;;3.00;99.90;;;;;;5117556;27;20233;-77
2021/01/25 09:41:17;;;;;;;38.27;20.90;;;3.50;99.90;;;;;;5122447;27;20204;-78
2021/01/25 09:43:44;;;;;;;37.77;20.53;;;3.60;99.90;;;;;;5128649;27;20186;-77
2021/01/25 09:46:10;;;;;;;39.30;19.97;;;3.60;99.90;;;;;;5124855;27;20249;-78
2021/01/25 09:48:37;;;;;;;37.47;20.10;;;3.50;99.90;;;;;;5127615;27;20198;-77
2021/01/25 09:51:05;;;;;;;36.07;19.07;;;3.30;99.90;;;;;;5127447;27;20221;-78
2021/01/25 09:53:31;;;;;;;34.73;17.57;;;3.30;99.90;;;;;;5128574;27;20206;-78
2021/01/25 09:55:58;;;;;;;35.17;18.07;;;3.50;99.90;;;;;;5127286;27;20195;-78
2021/01/25 09:58:24;;;;;;;30.97;17.00;;;3.50;99.90;;;;;;5127274;27;20320;-77
2021/01/25 10:00:51;;;;;;;35.07;17.80;;;3.40;99.90;;;;;;5125708;27;20248;-77
2021/01/25 10:03:18;;;;;;;35.67;17.87;;;3.30;99.90;;;;;;5128213;27;20237;-77
2021/01/25 10:05:44;;;;;;;38.10;19.30;;;3.20;99.90;;;;;;5127272;27;20223;-77
2021/01/25 10:08:12;;;;;;;35.53;18.60;;;3.10;99.90;;;;;;5120119;27;20197;-77
2021/01/25 10:10:38;;;;;;;37.53;19.53;;;3.10;99.90;;;;;;5123195;27;20238;-77
2021/01/25 10:13:06;;;;;;;33.20;18.27;;;3.10;99.90;;;;;;5125494;27;20290;-77
2021/01/25 10:15:33;;;;;;;34.33;18.53;;;3.40;99.90;;;;;;5127576;27;21524;-77
2021/01/25 10:18:02;;;;;;;33.13;17.50;;;3.40;99.90;;;;;;5120769;27;20264;-77
2021/01/25 10:20:29;;;;;;;32.43;14.50;;;3.60;99.90;;;;;;5127016;27;20721;-77
2021/01/25 10:22:55;;;;;;;34.57;18.47;;;3.60;99.90;;;;;;5126878;27;20195;-77
2021/01/25 10:25:53;;;;;;;31.90;16.20;;;3.60;99.90;;;;;;5128315;27;20313;-77
2021/01/25 10:28:20;;;;;;;30.17;16.63;;;3.60;99.90;;;;;;5124067;27;20194;-77
2021/01/25 10:30:47;;;;;;;32.87;18.07;;;3.50;99.90;;;;;;5120214;27;20202;-78
2021/01/25 10:33:14;;;;;;;30.20;16.50;;;3.40;99.90;;;;;;5124112;27;20206;-77
2021/01/25 10:35:41;;;;;;;29.47;16.63;;;3.50;99.90;;;;;;5117858;27;20625;-77
2021/01/25 10:38:08;;;;;;;27.17;15.37;;;3.70;99.90;;;;;;5125436;27;20585;-77
2021/01/25 10:40:34;;;;;;;34.53;16.43;;;3.50;99.90;;;;;;5127722;27;20202;-77
2021/01/25 10:43:01;;;;;;;36.83;17.60;;;3.30;99.90;;;;;;5123054;27;20282;-77
2021/01/25 10:45:28;;;;;;;34.57;17.07;;;3.40;99.90;;;;;;5137719;27;20260;-76
2021/01/25 10:47:54;;;;;;;32.17;17.03;;;3.60;99.90;;;;;;5132314;27;20222;-76
2021/01/25 10:50:21;;;;;;;30.70;16.70;;;3.80;99.90;;;;;;5122132;27;20202;-79
2021/01/25 10:52:49;;;;;;;34.17;18.40;;;3.70;99.90;;;;;;5120446;27;20197;-78
2021/01/25 10:55:16;;;;;;;35.10;19.43;;;3.70;99.90;;;;;;5122030;27;20198;-77
2021/01/25 10:57:42;;;;;;;36.37;18.13;;;3.80;99.90;;;;;;5122414;27;20210;-78
2021/01/25 11:00:12;;;;;;;36.90;18.60;;;3.90;99.90;;;;;;5122689;27;20611;-78
2021/01/25 11:02:39;;;;;;;35.60;18.63;;;3.90;99.90;;;;;;5118274;27;20205;-78
2021/01/25 11:05:07;;;;;;;31.80;17.93;;;3.90;99.90;;;;;;5115895;27;20725;-79
2021/01/25 11:07:34;;;;;;;38.27;19.43;;;4.00;99.90;;;;;;5116894;27;20206;-78
2021/01/25 11:10:00;;;;;;;36.77;18.57;;;4.00;99.90;;;;;;5110923;27;20659;-78
2021/01/25 11:12:26;;;;;;;36.47;18.13;;;4.00;99.90;;;;;;5127411;27;20682;-78
2021/01/25 11:14:53;;;;;;;32.93;18.33;;;3.90;99.90;;;;;;5131210;27;20195;-77
2021/01/25 11:17:23;;;;;;;41.17;21.43;;;4.00;99.90;;;;;;5120144;27;20291;-77
2021/01/25 11:19:51;;;;;;;40.17;20.83;;;4.30;99.90;;;;;;5126745;27;20503;-78
2021/01/25 11:22:20;;;;;;;36.20;20.17;;;4.40;99.90;;;;;;5120406;27;20198;-77
2021/01/25 11:24:46;;;;;;;33.40;17.77;;;4.30;99.90;;;;;;5119289;27;20703;-78
2021/01/25 11:27:12;;;;;;;39.87;19.10;;;4.10;99.90;;;;;;5121454;27;20255;-77
2021/01/25 11:29:39;;;;;;;39.40;20.80;;;4.10;99.90;;;;;;5111620;27;20226;-77
2021/01/25 11:32:06;;;;;;;39.90;20.17;;;4.30;99.90;;;;;;5112543;27;20606;-78
2021/01/25 11:34:33;;;;;;;38.00;20.03;;;4.30;99.90;;;;;;5113720;27;20195;-78
2021/01/25 11:37:00;;;;;;;41.57;21.27;;;4.40;99.90;;;;;;5119218;27;20219;-78
2021/01/25 11:39:28;;;;;;;41.90;22.73;;;4.50;99.90;;;;;;5117763;27;20632;-78
2021/01/25 11:41:54;;;;;;;45.47;23.07;;;4.70;99.90;;;;;;5117484;27;20571;-78
2021/01/25 11:44:21;;;;;;;41.77;22.37;;;4.80;99.90;;;;;;5115261;27;20200;-78
2021/01/25 11:46:47;;;;;;;46.77;22.83;;;5.00;99.90;;;;;;5111645;27;20219;-78
2021/01/25 11:49:14;;;;;;;44.53;23.30;;;4.90;99.90;;;;;;5112829;27;20295;-77
2021/01/25 11:51:42;;;;;;;44.43;22.97;;;4.80;99.90;;;;;;5113480;27;20198;-78
2021/01/25 11:54:08;;;;;;;45.63;22.23;;;4.60;99.90;;;;;;5117334;27;20206;-78
2021/01/25 11:56:35;;;;;;;40.67;21.57;;;4.80;99.90;;;;;;5111538;28;20257;-78
2021/01/25 11:59:01;;;;;;;43.37;21.73;;;4.90;99.90;;;;;;5112030;28;20274;-77
2021/01/25 12:01:29;;;;;;;45.37;22.87;;;5.00;99.90;;;;;;5125169;27;20311;-78
2021/01/25 12:03:56;;;;;;;39.70;19.43;;;5.10;99.90;;;;;;5116779;27;20544;-78
2021/01/25 12:06:22;;;;;;;41.30;20.20;;;5.00;99.90;;;;;;5109262;27;20384;-78
2021/01/25 12:08:50;;;;;;;36.60;18.73;;;4.80;99.90;;;;;;5117786;28;20194;-78
2021/01/25 12:11:18;;;;;;;37.87;20.77;;;4.90;99.90;;;;;;5117500;28;20339;-78
2021/01/25 12:13:45;;;;;;;42.20;20.77;;;5.00;99.90;;;;;;5117484;28;20203;-78
2021/01/25 12:16:14;;;;;;;39.47;21.37;;;5.00;99.90;;;;;;5116416;28;20283;-78
2021/01/25 12:18:41;;;;;;;40.40;22.03;;;5.20;99.90;;;;;;5112454;28;20199;-78
2021/01/25 12:21:10;;;;;;;44.90;22.30;;;5.00;99.90;;;;;;5123589;28;20207;-78
2021/01/25 12:23:37;;;;;;;38.13;19.77;;;5.20;99.90;;;;;;5119975;27;20200;-77
2021/01/25 12:26:04;;;;;;;36.57;19.70;;;5.30;99.90;;;;;;5124691;28;20546;-78
2021/01/25 12:28:31;;;;;;;33.87;18.17;;;5.20;99.90;;;;;;5125882;28;20201;-77
2021/01/25 12:31:00;;;;;;;27.67;14.93;;;5.10;99.90;;;;;;5127635;28;20300;-78
2021/01/25 12:33:26;;;;;;;28.00;15.47;;;5.10;99.90;;;;;;5123727;27;20684;-77
2021/01/25 12:35:52;;;;;;;32.47;17.90;;;5.20;99.90;;;;;;5124013;28;20742;-77
2021/01/25 12:38:19;;;;;;;28.77;14.97;;;5.30;99.90;;;;;;5124139;28;20290;-78
2021/01/25 12:40:45;;;;;;;28.47;14.50;;;5.40;99.90;;;;;;5128247;28;20671;-78